Time;durP1;ratioP1;P1;durP2;ratioP2;P2;SDS_P1;SDS_P2;PMS_P1;PMS_P2;Temp;Humidity;BMP_temperature;BMP_pressure;BME280_temperature;BME280_humidity;BME280_pressure;Samples;Min_cycle;Max_cycle;Signal;HPM_P1;HPM_P2
2020/12/23 00:00:00;;;;;;;0.10;0.10;;;15.50;93.00;;;;;;4228761;28;20074;-50
2020/12/23 00:02:21;;;;;;;0.00;0.00;;;15.50;93.10;;;;;;4228515;28;20056;-43
2020/12/23 00:04:42;;;;;;;0.40;0.40;;;15.40;93.10;;;;;;4228491;28;20054;-42
2020/12/23 00:07:06;;;;;;;0.22;0.17;;;15.40;93.20;;;;;;4228827;28;20063;-42
2020/12/23 00:09:27;;;;;;;0.38;0.38;;;15.40;93.20;;;;;;4228768;28;20154;-42
2020/12/23 00:11:53;;;;;;;0.15;0.15;;;15.40;93.20;;;;;;4220293;28;20047;-43
2020/12/23 00:14:14;;;;;;;0.00;0.00;;;15.40;93.20;;;;;;4228780;28;20063;-42
2020/12/23 00:16:41;;;;;;;0.20;0.20;;;15.40;93.30;;;;;;4228492;28;20113;-43
2020/12/23 00:19:03;;;;;;;0.00;0.00;;;15.30;93.20;;;;;;4228816;28;20538;-44
2020/12/23 00:21:24;;;;;;;0.10;0.10;;;15.30;93.30;;;;;;4229088;28;20574;-43
2020/12/23 00:23:44;;;;;;;0.52;0.52;;;15.30;93.30;;;;;;4229118;28;20055;-40
2020/12/23 00:26:07;;;;;;;0.15;0.15;;;15.30;93.30;;;;;;4229157;28;20051;-42
2020/12/23 00:28:29;;;;;;;0.20;0.20;;;15.30;93.40;;;;;;4231523;28;20086;-42
2020/12/23 00:30:50;;;;;;;0.00;0.00;;;15.30;93.40;;;;;;4231992;28;20055;-43
2020/12/23 00:33:19;;;;;;;0.30;0.30;;;15.30;93.40;;;;;;4231751;28;20397;-42
2020/12/23 00:35:39;;;;;;;0.00;0.00;;;15.20;93.50;;;;;;4228888;28;20134;-42
2020/12/23 00:38:00;;;;;;;0.22;0.22;;;15.20;93.50;;;;;;4231875;28;20051;-42
2020/12/23 00:40:21;;;;;;;0.00;0.00;;;15.20;93.50;;;;;;4230744;28;20418;-42
2020/12/23 00:42:43;;;;;;;0.30;0.30;;;15.20;93.50;;;;;;4231922;28;20198;-42
2020/12/23 00:45:05;;;;;;;0.32;0.20;;;15.20;93.50;;;;;;4231527;28;20051;-42
2020/12/23 00:47:26;;;;;;;0.10;0.10;;;15.20;93.60;;;;;;4231181;28;20413;-42
2020/12/23 00:49:47;;;;;;;0.00;0.00;;;15.20;93.70;;;;;;4229806;28;20074;-42
2020/12/23 00:52:08;;;;;;;0.15;0.15;;;15.20;93.60;;;;;;4230030;28;20051;-42
2020/12/23 00:54:29;;;;;;;;;;;15.20;93.60;;;;;;4230438;28;20414;-42
2020/12/23 00:56:52;;;;;;;0.00;0.00;;;15.20;93.70;;;;;;4229505;28;20414;-42
2020/12/23 00:59:13;;;;;;;0.00;0.00;;;15.20;93.70;;;;;;4231269;28;20057;-42
2020/12/23 01:01:35;;;;;;;;;;;15.10;93.70;;;;;;4231810;28;20126;-42
2020/12/23 01:03:56;;;;;;;0.10;0.10;;;15.10;93.70;;;;;;4231278;27;19955;-43
2020/12/23 01:06:17;;;;;;;0.00;0.00;;;15.10;93.80;;;;;;4230988;27;20056;-42
2020/12/23 01:08:38;;;;;;;0.00;0.00;;;15.10;93.80;;;;;;4231078;28;20391;-42
2020/12/23 01:10:59;;;;;;;0.40;0.22;;;15.10;94.20;;;;;;4231337;27;20782;-42
2020/12/23 01:13:20;;;;;;;0.05;0.05;;;15.00;93.80;;;;;;4231210;28;20055;-43
2020/12/23 01:15:41;;;;;;;1.35;1.17;;;15.10;93.90;;;;;;4231281;28;20513;-42
2020/12/23 01:18:03;;;;;;;0.00;0.00;;;15.20;93.90;;;;;;4216262;28;20463;-42
2020/12/23 01:20:24;;;;;;;0.00;0.00;;;15.30;93.60;;;;;;4231199;27;20104;-42
2020/12/23 01:22:45;;;;;;;0.10;0.10;;;15.40;93.30;;;;;;4231255;28;20075;-42
2020/12/23 01:25:05;;;;;;;0.57;0.57;;;15.50;93.10;;;;;;4231145;28;20079;-42
2020/12/23 01:27:27;;;;;;;0.00;0.00;;;15.60;93.40;;;;;;4230556;28;20146;-42
2020/12/23 01:29:48;;;;;;;0.00;0.00;;;15.60;93.30;;;;;;4230227;27;20059;-41
2020/12/23 01:32:08;;;;;;;0.15;0.15;;;15.60;92.90;;;;;;4230730;28;20138;-42
2020/12/23 01:34:30;;;;;;;0.00;0.00;;;15.60;92.90;;;;;;4230746;28;20572;-42
2020/12/23 01:36:51;;;;;;;0.00;0.00;;;15.60;92.90;;;;;;4230203;28;20055;-42
2020/12/23 01:39:12;;;;;;;;;;;15.50;92.90;;;;;;4230757;28;20083;-42
2020/12/23 01:41:33;;;;;;;0.00;0.00;;;15.50;92.90;;;;;;4230022;28;19923;-42
2020/12/23 01:43:57;;;;;;;0.28;0.28;;;15.50;93.00;;;;;;4230774;28;20060;-41
2020/12/23 01:46:20;;;;;;;0.00;0.00;;;15.50;93.00;;;;;;4230517;27;20059;-42
2020/12/23 01:48:41;;;;;;;0.05;0.05;;;15.40;93.10;;;;;;4230337;28;20494;-42
2020/12/23 01:51:03;;;;;;;0.08;0.08;;;15.40;93.10;;;;;;4230080;28;20055;-42
2020/12/23 01:53:27;;;;;;;0.22;0.22;;;15.40;93.10;;;;;;4229962;28;20096;-43
2020/12/23 01:55:48;;;;;;;0.00;0.00;;;15.40;93.20;;;;;;4230019;28;20122;-42
2020/12/23 01:58:10;;;;;;;0.25;0.25;;;15.30;93.20;;;;;;4230060;28;20518;-41
2020/12/23 02:00:30;;;;;;;;;;;15.30;93.20;;;;;;4230164;28;20055;-42
2020/12/23 02:02:54;;;;;;;;;;;15.30;93.30;;;;;;4230233;28;19930;-42
2020/12/23 02:05:16;;;;;;;0.00;0.00;;;15.30;93.40;;;;;;4213043;28;20015;-42
2020/12/23 02:07:38;;;;;;;0.10;0.10;;;15.20;93.40;;;;;;4213091;28;20052;-42
2020/12/23 02:10:02;;;;;;;0.00;0.00;;;15.20;93.40;;;;;;4212957;28;20431;-42
2020/12/23 02:12:23;;;;;;;1.13;0.57;;;15.20;93.40;;;;;;4229588;28;20127;-42
2020/12/23 02:14:44;;;;;;;0.28;0.28;;;15.20;93.60;;;;;;4212969;28;20059;-42
2020/12/23 02:17:05;;;;;;;0.00;0.00;;;15.40;93.40;;;;;;4229088;28;20116;-42
2020/12/23 02:19:26;;;;;;;;;;;15.60;92.80;;;;;;4229841;28;20047;-42
2020/12/23 02:22:03;;;;;;;1.10;1.10;;;15.80;92.30;;;;;;4229590;28;19945;-42
2020/12/23 02:24:25;;;;;;;0.00;0.00;;;16.00;91.90;;;;;;4230309;28;20073;-42
2020/12/23 02:26:45;;;;;;;0.00;0.00;;;16.10;91.80;;;;;;4229660;28;20055;-42
2020/12/23 02:29:07;;;;;;;0.10;0.10;;;16.10;91.70;;;;;;4229002;28;20050;-42
2020/12/23 02:31:28;;;;;;;0.00;0.00;;;16.10;91.50;;;;;;4229482;28;20058;-42
2020/12/23 02:33:49;;;;;;;0.00;0.00;;;16.10;91.50;;;;;;4227828;28;20066;-42
2020/12/23 02:36:10;;;;;;;0.00;0.00;;;16.10;91.60;;;;;;4229104;28;20083;-42
2020/12/23 02:38:31;;;;;;;1.17;0.90;;;16.00;91.60;;;;;;4229396;28;20075;-41
2020/12/23 02:40:55;;;;;;;0.00;0.00;;;16.00;91.70;;;;;;4229620;28;20063;-42
2020/12/23 02:43:16;;;;;;;0.10;0.10;;;15.90;91.80;;;;;;4229804;28;20439;-42
2020/12/23 02:45:37;;;;;;;0.00;0.00;;;15.90;92.00;;;;;;4229873;28;20051;-43
2020/12/23 02:47:58;;;;;;;0.00;0.00;;;15.80;92.10;;;;;;4229277;28;20134;-42
2020/12/23 02:50:19;;;;;;;0.00;0.00;;;15.70;92.10;;;;;;4212477;28;20494;-42
2020/12/23 02:52:40;;;;;;;0.15;0.15;;;15.70;92.10;;;;;;4219803;28;20421;-42
2020/12/23 02:55:01;;;;;;;;;;;15.60;92.20;;;;;;4229624;28;20508;-42
2020/12/23 02:57:23;;;;;;;0.00;0.00;;;15.60;92.40;;;;;;4228767;28;19920;-42
2020/12/23 02:59:43;;;;;;;0.00;0.00;;;15.50;92.50;;;;;;4229507;28;20179;-42
2020/12/23 03:02:07;;;;;;;0.00;0.00;;;15.50;92.60;;;;;;4229127;28;20056;-42
2020/12/23 03:04:28;;;;;;;0.00;0.00;;;15.40;92.70;;;;;;4228919;28;20055;-41
2020/12/23 03:06:49;;;;;;;0.00;0.00;;;15.40;92.80;;;;;;4228767;28;20395;-42
2020/12/23 03:09:12;;;;;;;0.25;0.25;;;15.40;92.90;;;;;;4229090;28;20112;-42
2020/12/23 03:11:33;;;;;;;0.10;0.10;;;15.30;93.00;;;;;;4228873;28;20129;-42
2020/12/23 03:13:54;;;;;;;0.10;0.10;;;15.30;93.10;;;;;;4228847;28;20046;-42
2020/12/23 03:16:15;;;;;;;;;;;15.40;92.90;;;;;;4229538;28;20501;-39
2020/12/23 03:18:35;;;;;;;0.00;0.00;;;15.60;92.50;;;;;;4229482;28;19927;-42
2020/12/23 03:20:57;;;;;;;0.00;0.00;;;15.80;92.10;;;;;;4229500;28;20154;-42
2020/12/23 03:23:18;;;;;;;0.15;0.15;;;15.90;91.90;;;;;;4229513;28;20048;-42
2020/12/23 03:25:38;;;;;;;0.05;0.05;;;15.90;91.80;;;;;;4228731;28;20126;-42
2020/12/23 03:27:59;;;;;;;0.00;0.00;;;15.90;91.80;;;;;;4228966;28;20101;-42
2020/12/23 03:30:21;;;;;;;0.40;0.40;;;15.90;91.80;;;;;;4229002;28;20417;-43
2020/12/23 03:32:42;;;;;;;0.00;0.00;;;15.80;91.80;;;;;;4228808;28;20058;-45
2020/12/23 03:35:11;;;;;;;0.10;0.10;;;15.80;91.90;;;;;;4219744;28;20044;-42
2020/12/23 03:37:33;;;;;;;0.03;0.03;;;15.70;92.00;;;;;;4228770;28;20502;-42
2020/12/23 03:39:53;;;;;;;0.08;0.08;;;15.70;92.10;;;;;;4228768;28;20075;-42
2020/12/23 03:42:14;;;;;;;0.05;0.05;;;15.60;92.20;;;;;;4229109;28;20105;-42
2020/12/23 03:44:35;;;;;;;0.00;0.00;;;15.60;92.30;;;;;;4229134;28;20128;-42
2020/12/23 03:46:56;;;;;;;0.00;0.00;;;15.60;92.50;;;;;;4228981;28;20138;-42
2020/12/23 03:49:17;;;;;;;0.00;0.00;;;15.60;92.30;;;;;;4228539;28;20051;-44
2020/12/23 03:51:39;;;;;;;0.40;0.40;;;15.80;92.10;;;;;;4228411;28;20050;-42
2020/12/23 03:54:01;;;;;;;0.50;0.50;;;15.90;91.90;;;;;;4228644;28;20610;-42
2020/12/23 03:56:22;;;;;;;0.22;0.20;;;15.90;91.70;;;;;;4228897;28;20059;-42
2020/12/23 03:58:43;;;;;;;0.00;0.00;;;15.90;91.60;;;;;;4229255;28;20055;-42
2020/12/23 04:01:03;;;;;;;0.00;0.00;;;15.90;91.70;;;;;;4231338;28;20561;-42
2020/12/23 04:03:25;;;;;;;0.00;0.00;;;15.90;91.70;;;;;;4232327;28;20039;-42
2020/12/23 04:05:46;;;;;;;0.20;0.20;;;15.80;91.80;;;;;;4231891;28;20063;-42
2020/12/23 04:08:06;;;;;;;0.00;0.00;;;15.80;91.90;;;;;;4231882;28;20044;-42
2020/12/23 04:10:27;;;;;;;0.00;0.00;;;15.80;91.80;;;;;;4231816;28;20047;-41
2020/12/23 04:12:48;;;;;;;1.00;0.50;;;15.80;91.80;;;;;;4216794;28;20090;-42
2020/12/23 04:15:11;;;;;;;0.10;0.10;;;15.80;91.70;;;;;;4231734;27;20082;-41
2020/12/23 04:17:32;;;;;;;0.00;0.00;;;15.80;91.80;;;;;;4231453;28;20083;-43
2020/12/23 04:19:54;;;;;;;0.35;0.35;;;15.70;91.90;;;;;;4231543;27;20067;-42
2020/12/23 04:22:15;;;;;;;0.25;0.25;;;15.70;92.40;;;;;;4231845;28;20055;-43
2020/12/23 04:24:36;;;;;;;4.00;1.88;;;15.70;92.10;;;;;;4231647;28;20070;-42
2020/12/23 04:26:57;;;;;;;0.20;0.20;;;15.60;92.20;;;;;;4231550;28;20043;-42
2020/12/23 04:29:18;;;;;;;0.25;0.17;;;15.60;92.20;;;;;;4231420;28;20893;-41
2020/12/23 04:31:39;;;;;;;0.20;0.20;;;15.70;92.20;;;;;;4231580;28;20047;-42
2020/12/23 04:33:59;;;;;;;0.30;0.30;;;15.80;91.90;;;;;;4231831;27;20052;-42
2020/12/23 04:36:24;;;;;;;0.45;0.45;;;16.10;91.20;;;;;;4231907;27;20083;-42
2020/12/23 04:38:44;;;;;;;0.10;0.10;;;16.50;90.50;;;;;;4231827;28;20048;-42
2020/12/23 04:41:08;;;;;;;0.57;0.57;;;16.70;89.90;;;;;;4231258;28;20183;-42
2020/12/23 04:43:30;;;;;;;0.10;0.10;;;16.70;89.20;;;;;;4231034;28;20060;-42
2020/12/23 04:45:51;;;;;;;0.00;0.00;;;16.80;88.80;;;;;;4230997;28;20047;-42
2020/12/23 04:48:13;;;;;;;0.00;0.00;;;16.80;88.90;;;;;;4231112;28;20486;-42
2020/12/23 04:50:34;;;;;;;0.13;0.13;;;16.70;89.00;;;;;;4230882;28;20048;-40
2020/12/23 04:52:58;;;;;;;0.03;0.03;;;16.60;89.30;;;;;;4230895;28;20047;-42
2020/12/23 04:55:19;;;;;;;0.00;0.00;;;16.60;89.60;;;;;;4229764;28;20570;-41
2020/12/23 04:57:41;;;;;;;0.08;0.08;;;16.60;89.70;;;;;;4230906;28;20048;-42
2020/12/23 05:00:03;;;;;;;0.00;0.00;;;16.60;89.50;;;;;;4231446;28;20769;-42
2020/12/23 05:02:24;;;;;;;0.00;0.00;;;16.60;89.50;;;;;;4230745;27;20505;-42
2020/12/23 05:04:45;;;;;;;0.00;0.00;;;16.60;89.50;;;;;;4231019;28;20081;-42
2020/12/23 05:07:07;;;;;;;0.55;0.20;;;16.50;89.70;;;;;;4230605;28;20445;-42
2020/12/23 05:09:32;;;;;;;0.10;0.10;;;16.50;90.40;;;;;;4230727;28;20047;-42
2020/12/23 05:11:54;;;;;;;0.00;0.00;;;16.40;90.20;;;;;;4230034;28;20055;-42
2020/12/23 05:14:16;;;;;;;0.00;0.00;;;16.50;90.10;;;;;;4230964;28;20478;-42
2020/12/23 05:16:40;;;;;;;0.00;0.00;;;16.50;90.00;;;;;;4230389;28;20055;-42
2020/12/23 05:19:01;;;;;;;0.00;0.00;;;16.50;89.90;;;;;;4230533;28;20056;-42
2020/12/23 05:21:24;;;;;;;0.55;0.55;;;16.50;90.00;;;;;;4230671;28;20818;-42
2020/12/23 05:23:47;;;;;;;0.38;0.38;;;16.40;90.00;;;;;;4230618;28;20047;-42
2020/12/23 05:26:09;;;;;;;0.30;0.30;;;16.50;90.00;;;;;;4230613;28;20788;-42
2020/12/23 05:28:30;;;;;;;0.00;0.00;;;16.60;89.80;;;;;;4230440;28;20044;-43
2020/12/23 05:30:54;;;;;;;0.00;0.00;;;16.60;89.60;;;;;;4230811;28;20094;-43
2020/12/23 05:33:15;;;;;;;1.92;1.92;;;16.50;89.60;;;;;;4230837;28;20055;-42
2020/12/23 05:35:36;;;;;;;0.15;0.15;;;16.50;89.70;;;;;;4231042;28;20048;-42
2020/12/23 05:37:57;;;;;;;0.00;0.00;;;16.60;89.60;;;;;;4230780;28;20067;-42
2020/12/23 05:40:18;;;;;;;0.45;0.45;;;16.60;89.50;;;;;;4230094;28;20051;-42
2020/12/23 05:42:40;;;;;;;0.10;0.10;;;16.60;89.60;;;;;;4230400;28;20055;-42
2020/12/23 05:45:05;;;;;;;0.17;0.17;;;16.50;89.70;;;;;;4230389;28;20055;-42
2020/12/23 05:47:27;;;;;;;0.15;0.15;;;16.60;89.80;;;;;;4230641;28;20052;-42
2020/12/23 05:49:50;;;;;;;0.68;0.68;;;16.60;89.00;;;;;;4229946;28;20127;-42
2020/12/23 05:52:12;;;;;;;1.48;1.38;;;16.70;89.70;;;;;;4230184;28;20134;-41
2020/12/23 05:54:35;;;;;;;2.47;0.73;;;16.70;88.80;;;;;;4230565;28;20130;-42
2020/12/23 05:56:56;;;;;;;0.00;0.00;;;16.70;88.90;;;;;;4229970;28;20108;-42
2020/12/23 05:59:18;;;;;;;0.00;0.00;;;16.60;89.00;;;;;;4229603;28;20062;-42
2020/12/23 06:01:40;;;;;;;0.00;0.00;;;16.60;89.20;;;;;;4229851;28;20168;-42
2020/12/23 06:04:06;;;;;;;0.10;0.10;;;16.50;89.60;;;;;;4229867;28;20502;-42
2020/12/23 06:06:29;;;;;;;0.00;0.00;;;16.50;89.80;;;;;;4229979;28;20048;-42
2020/12/23 06:08:52;;;;;;;0.10;0.10;;;16.70;90.00;;;;;;4229853;28;20100;-42
2020/12/23 06:11:31;;;;;;;0.30;0.30;;;16.70;89.30;;;;;;4229420;28;20048;-42
2020/12/23 06:14:13;;;;;;;0.25;0.25;;;16.80;88.20;;;;;;4229769;28;20047;-42
2020/12/23 06:16:36;;;;;;;0.00;0.00;;;16.90;87.60;;;;;;4229992;28;20047;-43
2020/12/23 06:18:59;;;;;;;0.15;0.15;;;17.00;87.10;;;;;;4230049;28;20573;-43
2020/12/23 06:21:22;;;;;;;0.22;0.17;;;17.10;86.90;;;;;;4229682;28;20056;-42
2020/12/23 06:23:46;;;;;;;0.00;0.00;;;17.00;86.70;;;;;;4228812;28;20079;-42
2020/12/23 06:26:14;;;;;;;0.00;0.00;;;16.90;87.20;;;;;;4230208;28;20055;-42
2020/12/23 06:28:38;;;;;;;0.00;0.00;;;16.90;87.60;;;;;;4229349;28;20055;-41
2020/12/23 06:31:02;;;;;;;0.45;0.45;;;16.80;87.80;;;;;;4228862;28;20474;-42
2020/12/23 06:33:23;;;;;;;0.10;0.10;;;16.70;88.20;;;;;;4229725;28;20493;-42
2020/12/23 06:35:44;;;;;;;0.05;0.05;;;16.70;88.60;;;;;;4229550;28;20051;-43
2020/12/23 06:38:20;;;;;;;0.15;0.15;;;16.60;88.80;;;;;;4229557;28;20140;-43
2020/12/23 06:40:57;;;;;;;0.03;0.03;;;16.60;88.80;;;;;;4229406;28;20048;-43
2020/12/23 06:43:18;;;;;;;0.00;0.00;;;16.60;89.10;;;;;;4228386;28;20079;-42
2020/12/23 06:45:54;;;;;;;0.10;0.10;;;16.60;89.20;;;;;;4229479;28;20135;-42
2020/12/23 06:48:17;;;;;;;0.45;0.40;;;16.60;89.20;;;;;;4229464;28;20163;-42
2020/12/23 06:50:45;;;;;;;0.00;0.00;;;16.60;89.30;;;;;;4229215;28;20147;-42
2020/12/23 06:53:06;;;;;;;0.00;0.00;;;16.60;89.50;;;;;;4229370;27;20676;-43
2020/12/23 06:55:51;;;;;;;0.00;0.00;;;16.50;89.80;;;;;;4229450;28;20051;-42
2020/12/23 06:58:40;;;;;;;0.20;0.20;;;16.60;89.30;;;;;;4229398;28;20687;-42
2020/12/23 07:01:16;;;;;;;0.63;0.63;;;16.70;88.70;;;;;;4229064;28;20047;-42
2020/12/23 07:03:37;;;;;;;0.00;0.00;;;16.80;88.50;;;;;;4229258;28;20047;-42
2020/12/23 07:05:59;;;;;;;0.20;0.20;;;16.90;88.10;;;;;;4229351;28;20055;-42
2020/12/23 07:08:21;;;;;;;0.00;0.00;;;17.10;87.00;;;;;;4229321;28;20075;-42
2020/12/23 07:10:45;;;;;;;1.35;1.35;;;17.20;86.20;;;;;;4228089;28;20149;-42
2020/12/23 07:13:08;;;;;;;0.20;0.20;;;17.30;85.80;;;;;;4229093;28;20425;-42
2020/12/23 07:15:31;;;;;;;0.00;0.00;;;17.30;85.60;;;;;;4229272;28;20039;-42
2020/12/23 07:17:54;;;;;;;0.00;0.00;;;17.20;85.70;;;;;;4229072;28;20493;-42
2020/12/23 07:20:16;;;;;;;0.05;0.05;;;17.20;86.00;;;;;;4228033;28;20044;-42
2020/12/23 07:22:39;;;;;;;0.20;0.20;;;17.10;85.80;;;;;;4229112;28;20051;-42
2020/12/23 07:25:01;;;;;;;0.10;0.10;;;16.90;86.20;;;;;;4229187;28;20052;-43
2020/12/23 07:27:25;;;;;;;0.00;0.00;;;16.80;86.80;;;;;;4227711;28;20493;-44
2020/12/23 07:29:53;;;;;;;0.00;0.00;;;16.70;87.30;;;;;;4228511;28;20068;-41
2020/12/23 07:32:18;;;;;;;0.00;0.00;;;16.60;88.00;;;;;;4219781;28;20059;-42
2020/12/23 07:34:49;;;;;;;0.25;0.25;;;16.60;88.30;;;;;;4229067;28;20051;-41
2020/12/23 07:37:09;;;;;;;0.85;0.68;;;16.60;87.70;;;;;;4219184;28;20063;-41
2020/12/23 07:39:32;;;;;;;1.70;0.52;;;16.60;87.70;;;;;;4223844;28;20082;-42
2020/12/23 07:41:55;;;;;;;0.47;0.45;;;16.60;87.90;;;;;;4232037;28;20070;-42
2020/12/23 07:44:19;;;;;;;0.00;0.00;;;16.60;88.30;;;;;;4231814;28;20517;-41
2020/12/23 07:46:40;;;;;;;0.08;0.08;;;16.50;88.50;;;;;;4232381;28;20051;-41
2020/12/23 07:49:00;;;;;;;0.03;0.03;;;16.50;88.80;;;;;;4231912;28;20047;-41
2020/12/23 07:51:22;;;;;;;1.42;1.33;;;16.40;89.10;;;;;;4229638;28;20154;-42
2020/12/23 07:53:43;;;;;;;0.00;0.00;;;16.50;89.10;;;;;;4232098;28;20055;-40
2020/12/23 07:56:05;;;;;;;0.88;0.88;;;16.50;88.80;;;;;;4226091;28;20050;-41
2020/12/23 07:58:27;;;;;;;0.57;0.57;;;16.60;88.50;;;;;;4231853;27;20053;-41
2020/12/23 08:00:49;;;;;;;0.52;0.52;;;16.60;88.20;;;;;;4231830;27;20055;-42
2020/12/23 08:03:09;;;;;;;0.00;0.00;;;16.60;87.90;;;;;;4231675;28;20091;-41
2020/12/23 08:05:31;;;;;;;1.25;0.68;;;16.60;87.80;;;;;;4231954;28;20059;-41
2020/12/23 08:08:08;;;;;;;2.97;1.98;;;16.60;87.90;;;;;;4231318;28;20097;-41
2020/12/23 08:10:30;;;;;;;0.22;0.22;;;16.60;88.00;;;;;;4231688;28;20509;-41
2020/12/23 08:12:56;;;;;;;0.10;0.10;;;16.50;88.10;;;;;;4231773;28;20573;-41
2020/12/23 08:15:17;;;;;;;0.17;0.17;;;16.50;88.40;;;;;;4214992;28;20044;-40
2020/12/23 08:17:38;;;;;;;0.40;0.40;;;16.40;88.70;;;;;;4215332;28;20438;-41
2020/12/23 08:20:07;;;;;;;0.20;0.20;;;16.30;88.90;;;;;;4231127;28;20083;-41
2020/12/23 08:22:28;;;;;;;1.30;0.80;;;16.30;89.20;;;;;;4231138;28;20561;-42
2020/12/23 08:24:49;;;;;;;0.00;0.00;;;16.20;89.50;;;;;;4214730;28;20098;-42
2020/12/23 08:27:13;;;;;;;0.10;0.10;;;16.10;89.80;;;;;;4219778;28;20551;-41
2020/12/23 08:29:35;;;;;;;6.10;1.70;;;16.10;90.00;;;;;;4230447;28;20047;-41
2020/12/23 08:31:58;;;;;;;0.70;0.70;;;16.00;90.20;;;;;;4228912;27;20850;-41
2020/12/23 08:34:21;;;;;;;0.03;0.03;;;15.90;90.30;;;;;;4225198;28;20043;-41
2020/12/23 08:36:50;;;;;;;0.03;0.03;;;15.80;90.40;;;;;;4231265;28;20051;-41
2020/12/23 08:39:11;;;;;;;0.38;0.38;;;15.80;90.60;;;;;;4231305;28;20051;-42
2020/12/23 08:41:33;;;;;;;0.13;0.13;;;15.70;90.70;;;;;;4214420;28;20135;-41
2020/12/23 08:43:54;;;;;;;0.10;0.10;;;15.60;90.80;;;;;;4215910;28;20052;-41
2020/12/23 08:46:23;;;;;;;0.38;0.38;;;15.60;90.90;;;;;;4229888;28;20048;-42
2020/12/23 08:48:47;;;;;;;0.30;0.30;;;15.50;91.00;;;;;;4231030;28;20508;-41
2020/12/23 08:51:10;;;;;;;0.35;0.35;;;15.50;91.20;;;;;;4231503;28;20478;-42
2020/12/23 08:53:32;;;;;;;0.25;0.25;;;15.40;91.30;;;;;;4231312;28;20524;-41
2020/12/23 08:55:53;;;;;;;0.50;0.50;;;15.40;91.40;;;;;;4231155;27;20090;-41
2020/12/23 08:58:16;;;;;;;0.50;0.50;;;15.30;91.50;;;;;;4231043;27;20059;-41
2020/12/23 09:00:40;;;;;;;0.03;0.03;;;15.30;91.60;;;;;;4231125;28;20066;-41
2020/12/23 09:03:02;;;;;;;1.00;0.85;;;15.20;91.60;;;;;;4231251;28;20055;-43
2020/12/23 09:05:26;;;;;;;2.78;2.58;;;15.20;91.70;;;;;;4230777;28;20048;-42
2020/12/23 09:07:47;;;;;;;0.52;0.52;;;15.10;91.70;;;;;;4231429;28;20063;-41
2020/12/23 09:10:12;;;;;;;0.65;0.65;;;15.10;91.80;;;;;;4231325;28;20413;-41
2020/12/23 09:12:33;;;;;;;0.10;0.10;;;15.10;91.80;;;;;;4214025;28;20391;-41
2020/12/23 09:14:54;;;;;;;0.03;0.03;;;15.00;91.80;;;;;;4214034;28;20089;-41
2020/12/23 09:17:23;;;;;;;0.73;0.73;;;15.00;91.90;;;;;;4214260;28;20125;-41
2020/12/23 09:19:53;;;;;;;0.00;0.00;;;15.00;92.00;;;;;;4214126;28;20453;-45
2020/12/23 09:22:24;;;;;;;0.10;0.10;;;15.00;91.90;;;;;;4221154;28;20067;-42
2020/12/23 09:24:45;;;;;;;0.03;0.03;;;14.90;91.90;;;;;;4230101;28;20062;-45
2020/12/23 09:27:23;;;;;;;1.55;1.45;;;14.90;92.00;;;;;;4230410;28;20309;-41
2020/12/23 09:29:44;;;;;;;0.00;0.00;;;14.90;92.00;;;;;;4220596;28;20557;-43
2020/12/23 09:32:05;;;;;;;0.10;0.10;;;14.90;92.10;;;;;;4230963;27;20051;-41
2020/12/23 09:34:44;;;;;;;0.35;0.35;;;15.00;92.00;;;;;;4230803;28;20051;-41
2020/12/23 09:37:06;;;;;;;;;;;15.10;91.70;;;;;;4230790;28;20053;-43
2020/12/23 09:39:26;;;;;;;0.00;0.00;;;15.20;91.40;;;;;;4230300;28;20011;-42
2020/12/23 09:41:59;;;;;;;0.10;0.10;;;15.20;91.30;;;;;;4230328;28;20051;-42
2020/12/23 09:44:20;;;;;;;0.47;0.47;;;15.30;91.20;;;;;;4221844;28;20797;-44
2020/12/23 09:46:41;;;;;;;0.55;0.55;;;15.30;91.20;;;;;;4230742;28;20394;-42
2020/12/23 09:49:05;;;;;;;0.25;0.25;;;15.20;91.10;;;;;;4230008;28;20051;-42
2020/12/23 09:51:25;;;;;;;0.10;0.10;;;15.20;91.10;;;;;;4230592;28;20055;-41
2020/12/23 09:53:50;;;;;;;0.00;0.00;;;15.20;91.20;;;;;;4230036;28;20051;-41
2020/12/23 09:56:12;;;;;;;;;;;15.10;91.30;;;;;;4229855;28;20484;-41
2020/12/23 09:58:33;;;;;;;0.43;0.43;;;15.10;91.30;;;;;;4229873;28;19923;-41
2020/12/23 10:00:54;;;;;;;0.03;0.03;;;15.00;91.40;;;;;;4230507;28;20109;-43
2020/12/23 10:03:16;;;;;;;0.45;0.45;;;15.00;91.50;;;;;;4229667;28;20067;-42
2020/12/23 10:05:37;;;;;;;0.00;0.00;;;15.00;91.50;;;;;;4230041;28;20048;-42
2020/12/23 10:07:58;;;;;;;2.05;1.90;;;15.00;91.60;;;;;;4230265;28;20130;-41
2020/12/23 10:10:20;;;;;;;;;;;15.10;91.50;;;;;;4230191;28;20052;-41
2020/12/23 10:12:41;;;;;;;;;;;15.20;91.20;;;;;;4230409;28;20022;-41
2020/12/23 10:15:02;;;;;;;0.05;0.05;;;15.20;91.20;;;;;;4229989;28;20346;-42
2020/12/23 10:17:22;;;;;;;0.00;0.00;;;15.20;91.20;;;;;;4229753;28;20051;-41
2020/12/23 10:19:43;;;;;;;0.05;0.05;;;15.20;91.00;;;;;;4229505;28;20047;-41
2020/12/23 10:22:04;;;;;;;;;;;15.20;91.00;;;;;;4228593;28;20052;-41
2020/12/23 10:24:26;;;;;;;0.05;0.05;;;15.20;90.90;;;;;;4230025;28;20386;-42
2020/12/23 10:26:52;;;;;;;0.00;0.00;;;15.20;90.90;;;;;;4229452;28;20083;-41
2020/12/23 10:29:13;;;;;;;0.82;0.82;;;15.20;91.00;;;;;;4229434;28;20047;-41
2020/12/23 10:31:35;;;;;;;0.05;0.05;;;15.20;91.00;;;;;;4229541;28;20055;-41
2020/12/23 10:33:56;;;;;;;0.20;0.20;;;15.20;90.90;;;;;;4229704;28;20253;-41
2020/12/23 10:36:17;;;;;;;0.10;0.10;;;15.30;90.70;;;;;;4230153;28;20055;-41
2020/12/23 10:38:37;;;;;;;0.10;0.10;;;15.50;90.40;;;;;;4229879;28;20079;-42
2020/12/23 10:40:58;;;;;;;0.60;0.60;;;15.50;90.10;;;;;;4229344;28;20043;-42
2020/12/23 10:43:20;;;;;;;0.25;0.25;;;15.60;90.10;;;;;;4229372;28;20086;-41
2020/12/23 10:45:44;;;;;;;0.50;0.50;;;15.50;90.10;;;;;;4229677;28;20054;-42
2020/12/23 10:48:05;;;;;;;0.10;0.10;;;15.50;90.20;;;;;;4229675;28;20182;-41
2020/12/23 10:50:25;;;;;;;1.58;1.55;;;15.50;90.10;;;;;;4229642;28;20135;-41
2020/12/23 10:52:46;;;;;;;0.30;0.30;;;15.50;90.10;;;;;;4229049;28;20053;-41
2020/12/23 10:55:07;;;;;;;1.55;0.93;;;15.60;90.00;;;;;;4229052;28;20059;-42
2020/12/23 10:57:33;;;;;;;0.10;0.10;;;15.50;90.10;;;;;;4229189;27;20056;-41
2020/12/23 10:59:54;;;;;;;0.10;0.10;;;15.50;90.10;;;;;;4228865;28;20494;-41
2020/12/23 11:02:15;;;;;;;0.00;0.00;;;15.40;90.20;;;;;;4229169;28;20085;-42
2020/12/23 11:04:36;;;;;;;0.00;0.00;;;15.40;90.20;;;;;;4229608;28;20052;-42
2020/12/23 11:06:57;;;;;;;0.08;0.08;;;15.30;90.30;;;;;;4229711;28;20300;-42
2020/12/23 11:09:18;;;;;;;0.00;0.00;;;15.30;90.80;;;;;;4229057;28;20055;-43
2020/12/23 11:11:38;;;;;;;0.00;0.00;;;15.20;90.50;;;;;;4228964;28;20055;-42
2020/12/23 11:13:59;;;;;;;0.00;0.00;;;15.20;90.60;;;;;;4229557;28;20083;-42
2020/12/23 11:16:21;;;;;;;0.00;0.00;;;15.10;90.60;;;;;;4229042;28;20047;-42
2020/12/23 11:18:42;;;;;;;0.10;0.10;;;15.00;90.70;;;;;;4228868;28;20494;-42
2020/12/23 11:21:03;;;;;;;;;;;15.00;90.80;;;;;;4228944;28;20489;-42
2020/12/23 11:23:25;;;;;;;0.00;0.00;;;14.90;90.90;;;;;;4221982;28;20400;-42
2020/12/23 11:25:45;;;;;;;0.00;0.00;;;14.90;91.00;;;;;;4229304;28;20497;-42
2020/12/23 11:28:06;;;;;;;0.10;0.10;;;14.90;91.10;;;;;;4220565;28;20050;-42
2020/12/23 11:30:27;;;;;;;;;;;14.80;91.10;;;;;;4229394;28;20051;-41
2020/12/23 11:32:50;;;;;;;3.30;0.75;;;14.80;91.20;;;;;;4229576;28;19924;-42
2020/12/23 11:35:10;;;;;;;;;;;14.70;91.20;;;;;;4229727;28;20048;-42
2020/12/23 11:37:31;;;;;;;0.20;0.20;;;14.70;91.30;;;;;;4228900;28;20514;-42
2020/12/23 11:39:52;;;;;;;0.17;0.17;;;14.70;91.40;;;;;;4228772;28;20413;-41
2020/12/23 11:42:13;;;;;;;0.00;0.00;;;14.60;91.50;;;;;;4228911;28;20057;-41
2020/12/23 11:44:34;;;;;;;1.67;1.58;;;14.60;91.50;;;;;;4228897;28;20168;-41
2020/12/23 11:46:55;;;;;;;4.00;0.73;;;14.60;91.60;;;;;;4229356;28;20082;-42
2020/12/23 11:49:17;;;;;;;0.00;0.00;;;14.50;91.60;;;;;;4228959;28;20121;-42
2020/12/23 11:51:38;;;;;;;0.17;0.17;;;14.60;91.70;;;;;;4228796;28;20055;-42
2020/12/23 11:53:59;;;;;;;0.00;0.00;;;14.50;91.70;;;;;;4228753;28;20052;-42
2020/12/23 11:56:20;;;;;;;0.00;0.00;;;14.50;91.80;;;;;;4228460;28;20048;-41
2020/12/23 11:58:40;;;;;;;0.10;0.10;;;14.50;91.80;;;;;;4228641;28;20100;-42
2020/12/23 12:01:02;;;;;;;0.10;0.10;;;14.50;91.90;;;;;;4228587;28;20105;-42
2020/12/23 12:03:23;;;;;;;0.00;0.00;;;14.60;91.80;;;;;;4228327;28;20047;-42
2020/12/23 12:05:44;;;;;;;0.00;0.00;;;14.70;91.60;;;;;;4229066;28;20502;-42
2020/12/23 12:08:08;;;;;;;0.30;0.30;;;14.80;91.50;;;;;;4228873;28;20123;-42
2020/12/23 12:10:45;;;;;;;0.30;0.30;;;14.90;91.30;;;;;;4229145;28;20430;-43
2020/12/23 12:13:06;;;;;;;0.35;0.35;;;15.00;91.20;;;;;;4229218;28;20058;-44
2020/12/23 12:15:27;;;;;;;;;;;15.10;91.30;;;;;;4229659;28;20135;-44
2020/12/23 12:17:48;;;;;;;0.00;0.00;;;15.30;90.60;;;;;;4228957;28;20355;-50
2020/12/23 12:20:09;;;;;;;0.32;0.32;;;15.40;90.30;;;;;;4228317;28;20309;-43
2020/12/23 12:22:31;;;;;;;0.57;0.57;;;15.40;90.10;;;;;;4231263;28;20130;-52
2020/12/23 12:24:52;;;;;;;0.10;0.10;;;15.50;90.00;;;;;;4231794;28;20414;-43